Главная страница
METAR-TAF:

METAR-TAF

Аэропорты :

Борден (авиабаза)

Borden, Онтарио, Канада

широта: 44-15N, долгота: 079-55W, высота над уровнем моря: 223 м

Текущие метеонаблюдения

Эта сводка был подготовлена 1 час и 2 минут назад, в 19:00 UTC
Ветер 4 Узел от западный, изменяющийся между западный и северо-западный
Температура 23°C
Влажность 36%
Давление 1018 hPa
Видимость: 14.5 км
ясное небо

METAR: CYBN 181900Z AUTO 28004KT 260V320 9SM CLR 23/07 A3007 RMK SLP183

Время: 16:02 (20:02 UTC)

Прогноз

Эта сводка был подготовлена 2 часа и 32 минут назад, в 17:30 UTC
Прогноз действительный с 18-го 18 UTC до 19-го 06 UTC
Ветер 5 Узел от северный
Видимость: 10 км
небольшая облачность на высоте 4000 фута
изменения
С 18-го 18 UTC до 18-го 20 UTC
Ветер 10 Узел от северно-северо-западный
изменения
С 19-го 01 UTC до 19-го 03 UTC
Ветер 3 Узел переменных направлений

TAF: CYBN 181730Z 1818/1906 35005KT P6SM FEW040 BECMG 1818/1820 33010KT BECMG 1901/1903 VRB03KT RMK FCST BASED ON AUTO OBS. NXT FCST BY 190000Z

Метеонаблюдения и прогнозы для более 4000 аэропортов (сводки METAR и TAF).

Имеющиеся станции представлены на карте желтыми и красными точками.

Чтобы увидеть название станции, наведите на нее мышь.

Затем щелкните, чтобы увидеть метеонаблюдения и метеопрогнозы.

Управление картой: чтобы увеличить масштаб, щелкните зеленые кнопки с черным крестиком; чтобы уменьшить масштаб, щелкните зеленую кнопку с тире; для просмотра соседних карт щелкайте зеленые стрелки.


METAR-TAF: